메인 페이지
METAR-TAF:

METAR-TAF

공항 :

Yüksekova, 터키

위도: 37-33-06N, 경도: 44-14-01E, 고도: 1950m

현재 날씨관측

예보는 12 시간 30분 전, 13:50시(UTC)에 발표되었습니다.
동북동16kt
온도 21°C
습도 38%
기압 1024 hPa
시정 10km 이상
고도 4000ft 상공 구름 조금

METAR: LTCW 281350Z 07016KT 9999 FEW040 21/06 Q1024

시각: 05:20 (02:20 UTC)

예보

예보는 3 시간 40분 전, 22:40시(UTC)에 발표되었습니다.
예보 대상 시간: 29일 00시부터 29일 09시까지 (UTC)
8kt
시정 10km 이상
고도 4000ft 상공 구름 조금
전환 중
29일 06시부터 29일 08시까지 (UTC)
동북동15kt, 순간 최대 풍속 25kt

TAF: LTCW 282240Z 2900/2909 27008KT 9999 FEW040 BECMG 2906/2908 06015G25KT

4,000개 이상의 공항 관측 자료 및 예보 (METAR 및 TAF 보고).

지도상에서 검색 가능한 기상관측소가 노란 점과 빨간 점으로 표시되어 있습니다.

기상관측소 명을 보려면 표시 위로 마우스를 이동하세요.

날씨 관측과 예보를 보려면 클릭하세요.

지도 변경 : 확대하려면 엑스 표시가 있는 녹색 버튼, 축소하려면 빼기 표시가 있는 녹색 버튼, 다음 페이지의 지도를 보려면 녹색 화살표를 클릭하세요.


METAR-TAF: